Time;durP1;ratioP1;P1;durP2;ratioP2;P2;SDS_P1;SDS_P2;PMS_P1;PMS_P2;Temp;Humidity;BMP_temperature;BMP_pressure;BME280_temperature;BME280_humidity;BME280_pressure;Samples;Min_cycle;Max_cycle;Signal;HPM_P1;HPM_P2
2023/09/17 00:02:09;;;;;;;6.70;2.05;;;32.60;32.70;;;;;;5056224;28;20025;-68
2023/09/17 00:04:37;;;;;;;4.60;1.85;;;32.70;32.50;;;;;;5058149;28;20031;-68
2023/09/17 00:07:04;;;;;;;4.13;1.65;;;32.90;32.20;;;;;;5058751;28;20074;-68
2023/09/17 00:09:32;;;;;;;3.90;1.67;;;33.60;30.70;;;;;;5056363;28;20025;-67
2023/09/17 00:11:59;;;;;;;4.10;1.83;;;33.30;29.80;;;;;;5056012;28;20029;-68
2023/09/17 00:14:27;;;;;;;4.90;1.75;;;33.40;31.00;;;;;;5053800;28;20497;-69
2023/09/17 00:16:54;;;;;;;4.47;1.55;;;33.80;30.20;;;;;;5058689;28;20123;-68
2023/09/17 00:19:21;;;;;;;4.57;1.60;;;34.10;29.40;;;;;;5053070;28;20071;-68
2023/09/17 00:21:51;;;;;;;4.72;1.50;;;33.90;30.80;;;;;;5060723;28;20063;-68
2023/09/17 00:24:19;;;;;;;3.65;1.50;;;33.90;30.10;;;;;;5050883;28;20082;-68
2023/09/17 00:26:46;;;;;;;2.70;1.30;;;34.20;29.40;;;;;;5054448;28;20040;-67
2023/09/17 00:29:14;;;;;;;2.95;1.50;;;34.70;28.50;;;;;;5048991;28;20041;-68
2023/09/17 00:31:41;;;;;;;3.38;1.60;;;34.50;29.10;;;;;;5056922;28;20532;-68
2023/09/17 00:34:08;;;;;;;6.53;1.80;;;34.50;30.90;;;;;;5063234;28;20505;-68
2023/09/17 00:36:36;;;;;;;5.50;1.65;;;34.70;28.20;;;;;;5051640;28;20036;-68
2023/09/17 00:39:03;;;;;;;4.47;1.60;;;34.40;28.90;;;;;;5056977;28;20203;-68
2023/09/17 00:41:31;;;;;;;2.25;1.63;;;34.30;29.70;;;;;;5055160;28;20040;-68
2023/09/17 00:43:58;;;;;;;3.10;1.40;;;34.70;28.90;;;;;;5053643;28;20111;-68
2023/09/17 00:46:26;;;;;;;4.88;1.70;;;34.70;30.00;;;;;;5052831;28;20029;-68
2023/09/17 00:48:53;;;;;;;2.28;1.33;;;34.70;29.40;;;;;;5048424;28;20052;-69
2023/09/17 00:51:21;;;;;;;2.88;1.58;;;34.80;29.50;;;;;;5050341;28;20013;-69
2023/09/17 00:53:48;;;;;;;5.40;1.90;;;35.20;29.50;;;;;;5048627;28;20138;-69
2023/09/17 00:56:16;;;;;;;3.30;1.40;;;35.70;29.60;;;;;;5046339;28;20024;-68
2023/09/17 00:58:44;;;;;;;2.35;1.27;;;35.80;27.70;;;;;;5057838;28;20036;-68
2023/09/17 01:01:14;;;;;;;2.90;1.42;;;35.10;26.20;;;;;;5046484;28;20117;-68
2023/09/17 01:03:42;;;;;;;4.82;1.70;;;34.90;27.00;;;;;;5047708;28;20048;-67
2023/09/17 01:06:12;;;;;;;1.80;1.10;;;35.00;27.50;;;;;;5050617;28;20029;-68
2023/09/17 01:08:40;;;;;;;1.83;0.90;;;35.40;26.90;;;;;;5058692;28;20145;-68
2023/09/17 01:11:09;;;;;;;2.42;1.40;;;35.00;26.90;;;;;;5048524;28;20032;-69
2023/09/17 01:13:47;;;;;;;4.10;1.23;;;34.80;27.20;;;;;;5051092;28;20116;-68
2023/09/17 01:16:14;;;;;;;2.35;1.30;;;34.60;26.10;;;;;;5046748;28;20111;-69
2023/09/17 01:18:42;;;;;;;2.53;1.05;;;34.10;26.50;;;;;;5060142;28;20032;-70
2023/09/17 01:21:16;;;;;;;2.25;1.13;;;33.70;27.90;;;;;;5053058;28;20486;-72
2023/09/17 01:23:51;;;;;;;1.90;1.08;;;34.10;27.00;;;;;;5042053;28;20402;-70
2023/09/17 01:26:26;;;;;;;1.83;1.13;;;34.30;27.70;;;;;;5058812;28;20111;-70
2023/09/17 01:28:59;;;;;;;3.28;1.20;;;35.00;28.60;;;;;;5054802;28;20032;-70
2023/09/17 01:31:27;;;;;;;3.20;1.02;;;35.50;28.70;;;;;;5058054;28;20029;-70
2023/09/17 01:33:54;;;;;;;5.43;1.30;;;35.50;27.50;;;;;;5055160;28;20076;-70
2023/09/17 01:36:36;;;;;;;2.38;1.38;;;35.50;27.00;;;;;;5029957;28;20028;-70
2023/09/17 01:39:13;;;;;;;2.70;1.30;;;35.70;27.00;;;;;;5042144;28;20474;-69
2023/09/17 01:41:43;;;;;;;1.92;1.10;;;35.40;28.10;;;;;;5058321;28;20078;-70
2023/09/17 01:44:12;;;;;;;2.72;1.00;;;35.50;28.00;;;;;;5054932;28;20131;-72
2023/09/17 01:46:40;;;;;;;2.08;1.27;;;35.80;27.40;;;;;;5058438;28;20024;-71
2023/09/17 01:49:12;;;;;;;2.72;1.15;;;35.70;27.00;;;;;;5060136;28;20052;-70
2023/09/17 01:51:40;;;;;;;3.60;1.25;;;35.80;27.40;;;;;;5057039;28;20457;-70
2023/09/17 01:54:08;;;;;;;3.08;1.00;;;35.70;27.40;;;;;;5054967;28;20051;-70
2023/09/17 01:56:37;;;;;;;2.20;1.10;;;35.90;27.50;;;;;;5060546;28;20028;-69
2023/09/17 01:59:07;;;;;;;6.43;1.85;;;36.20;27.80;;;;;;5057408;28;20386;-70
2023/09/17 02:01:35;;;;;;;3.85;1.55;;;36.50;28.80;;;;;;5051628;28;20025;-70
2023/09/17 02:04:03;;;;;;;2.13;1.40;;;36.40;28.30;;;;;;5054094;28;20024;-70
2023/09/17 02:06:30;;;;;;;4.15;1.30;;;36.60;27.40;;;;;;5054147;28;20103;-70
2023/09/17 02:08:58;;;;;;;2.65;1.30;;;36.30;28.00;;;;;;5062721;28;20032;-70
2023/09/17 02:11:25;;;;;;;2.17;1.10;;;36.40;28.00;;;;;;5048879;28;20079;-70
2023/09/17 02:13:52;;;;;;;2.15;1.10;;;36.50;29.30;;;;;;5051646;28;20031;-71
2023/09/17 02:16:20;;;;;;;4.80;1.40;;;36.70;27.40;;;;;;5056578;28;20029;-69
2023/09/17 02:18:48;;;;;;;2.47;1.20;;;36.50;27.10;;;;;;5044923;28;20032;-70
2023/09/17 02:21:15;;;;;;;2.60;1.15;;;36.60;28.50;;;;;;5063859;28;20129;-70
2023/09/17 02:23:44;;;;;;;1.65;1.13;;;36.90;27.40;;;;;;5052458;28;20056;-70
2023/09/17 02:26:12;;;;;;;3.25;1.30;;;36.50;26.10;;;;;;5049298;28;20028;-70
2023/09/17 02:28:39;;;;;;;3.50;1.33;;;36.40;26.50;;;;;;5048974;28;20033;-69
2023/09/17 02:31:06;;;;;;;2.53;1.10;;;36.70;25.90;;;;;;5050196;28;20021;-70
2023/09/17 02:33:34;;;;;;;4.28;1.40;;;36.50;27.40;;;;;;5049962;28;20475;-70
2023/09/17 02:36:03;;;;;;;1.60;1.00;;;36.50;26.90;;;;;;5050654;28;20131;-71
2023/09/17 02:38:30;;;;;;;3.33;1.23;;;36.80;27.60;;;;;;5047679;28;20025;-70
2023/09/17 02:40:57;;;;;;;2.15;0.98;;;36.50;26.00;;;;;;5061293;28;20056;-71
2023/09/17 02:43:27;;;;;;;1.85;0.95;;;36.50;26.80;;;;;;5054959;28;20033;-70
2023/09/17 02:45:55;;;;;;;3.67;1.17;;;36.80;25.90;;;;;;5054171;28;20033;-70
2023/09/17 02:48:22;;;;;;;1.88;1.02;;;36.70;25.60;;;;;;5053384;28;20021;-70
2023/09/17 02:50:50;;;;;;;1.20;0.80;;;36.80;26.70;;;;;;5053716;28;20478;-71
2023/09/17 02:53:18;;;;;;;2.28;1.10;;;37.20;27.00;;;;;;5054283;28;20403;-70
2023/09/17 02:55:45;;;;;;;2.35;0.82;;;37.20;26.40;;;;;;5055134;28;20029;-70
2023/09/17 02:58:13;;;;;;;4.65;1.33;;;37.30;26.60;;;;;;5061204;28;20028;-70
2023/09/17 03:00:41;;;;;;;1.83;1.05;;;37.10;26.30;;;;;;5062525;28;20429;-70
2023/09/17 03:03:08;;;;;;;1.85;1.20;;;37.20;26.20;;;;;;5056662;28;20117;-70
2023/09/17 03:05:35;;;;;;;2.13;0.90;;;37.20;26.20;;;;;;5058852;28;20025;-70
2023/09/17 03:08:05;;;;;;;1.98;0.82;;;37.20;25.70;;;;;;5058924;28;20668;-69
2023/09/17 03:10:41;;;;;;;0.98;0.80;;;37.20;26.70;;;;;;5060105;28;20051;-70
2023/09/17 03:13:14;;;;;;;1.77;0.90;;;37.30;27.20;;;;;;5055824;28;20025;-70
2023/09/17 03:15:42;;;;;;;3.22;1.20;;;37.40;27.70;;;;;;5055429;28;20105;-70
2023/09/17 03:18:09;;;;;;;2.40;0.82;;;37.50;28.20;;;;;;5052916;28;20025;-70
2023/09/17 03:20:37;;;;;;;1.67;0.98;;;37.30;28.30;;;;;;5058142;28;20405;-69
2023/09/17 03:23:05;;;;;;;3.15;0.80;;;37.60;26.90;;;;;;5058633;28;20569;-70
2023/09/17 03:25:32;;;;;;;1.20;0.90;;;37.60;26.90;;;;;;5056276;28;20425;-70
2023/09/17 03:28:00;;;;;;;2.63;1.13;;;37.70;27.00;;;;;;5055225;28;20021;-70
2023/09/17 03:30:30;;;;;;;2.83;1.02;;;37.60;28.00;;;;;;5061183;28;20091;-70
2023/09/17 03:32:58;;;;;;;3.25;1.02;;;37.80;26.80;;;;;;5056163;28;20114;-70
2023/09/17 03:35:25;;;;;;;2.88;1.13;;;37.80;26.10;;;;;;5055172;28;20343;-70
2023/09/17 03:37:53;;;;;;;4.07;0.98;;;38.10;27.30;;;;;;5058056;28;20029;-70
2023/09/17 03:40:20;;;;;;;1.88;0.98;;;37.90;26.80;;;;;;5063843;28;20086;-71
2023/09/17 03:42:47;;;;;;;3.50;0.95;;;38.00;25.30;;;;;;5056395;28;20021;-70
2023/09/17 03:45:15;;;;;;;3.22;0.90;;;37.40;27.00;;;;;;5057059;28;20018;-70
2023/09/17 03:47:43;;;;;;;2.40;0.95;;;37.50;26.00;;;;;;5064470;28;20137;-70
2023/09/17 03:50:14;;;;;;;1.15;0.80;;;37.30;26.10;;;;;;5067655;28;20038;-70
2023/09/17 03:52:45;;;;;;;9.40;1.23;;;37.10;25.30;;;;;;5062229;28;20115;-69
2023/09/17 03:55:14;;;;;;;1.77;0.80;;;37.00;25.10;;;;;;5056412;28;20572;-70
2023/09/17 03:57:42;;;;;;;1.73;0.77;;;36.50;26.10;;;;;;5056054;28;20036;-69
2023/09/17 04:00:15;;;;;;;2.05;0.60;;;36.40;25.10;;;;;;5056630;28;20450;-70
2023/09/17 04:02:44;;;;;;;1.42;0.57;;;36.60;26.50;;;;;;5052787;28;20470;-70
2023/09/17 04:05:14;;;;;;;2.63;0.73;;;36.80;26.20;;;;;;5065333;28;20380;-70
2023/09/17 04:07:48;;;;;;;1.08;0.60;;;36.90;26.30;;;;;;5059045;28;20488;-70
2023/09/17 04:10:17;;;;;;;1.67;0.90;;;37.20;25.60;;;;;;5050774;28;20037;-70
2023/09/17 04:12:47;;;;;;;0.90;0.77;;;37.40;26.50;;;;;;5050529;28;20029;-70
2023/09/17 04:15:17;;;;;;;4.32;0.80;;;37.50;25.70;;;;;;5051908;28;20033;-71
2023/09/17 04:17:51;;;;;;;1.35;0.60;;;37.30;25.40;;;;;;5048072;28;20022;-70
2023/09/17 04:20:19;;;;;;;1.58;0.63;;;37.30;24.80;;;;;;5068102;28;20111;-69
2023/09/17 04:22:48;;;;;;;1.05;0.60;;;37.20;25.20;;;;;;5061379;28;20445;-70
2023/09/17 04:25:18;;;;;;;1.17;0.65;;;36.80;25.60;;;;;;5060396;28;20028;-71
2023/09/17 04:27:47;;;;;;;1.42;0.93;;;37.10;25.50;;;;;;5053176;28;20032;-70
2023/09/17 04:30:19;;;;;;;1.30;0.70;;;37.10;26.20;;;;;;5053618;28;20078;-70
2023/09/17 04:32:47;;;;;;;1.67;0.80;;;37.20;25.90;;;;;;5056828;28;20071;-70
2023/09/17 04:35:17;;;;;;;0.60;0.40;;;37.20;24.00;;;;;;5058163;28;20028;-69
2023/09/17 04:37:46;;;;;;;2.70;1.20;;;36.90;25.30;;;;;;5066378;28;20067;-69
2023/09/17 04:40:14;;;;;;;1.02;0.80;;;36.70;24.00;;;;;;5065704;28;20393;-71
2023/09/17 04:42:48;;;;;;;0.73;0.50;;;36.70;25.80;;;;;;5063132;28;20052;-71
2023/09/17 04:45:34;;;;;;;1.27;0.52;;;36.70;25.00;;;;;;5059680;28;20029;-71
2023/09/17 04:48:02;;;;;;;1.00;0.50;;;36.60;23.80;;;;;;5060901;28;20029;-71
2023/09/17 04:50:30;;;;;;;0.45;0.40;;;36.50;24.40;;;;;;5033752;28;20041;-71
2023/09/17 04:52:57;;;;;;;2.20;0.65;;;36.50;23.10;;;;;;5053107;28;20123;-71
2023/09/17 04:55:25;;;;;;;0.80;0.40;;;36.40;23.40;;;;;;5054375;28;20477;-71
2023/09/17 04:57:52;;;;;;;1.10;0.40;;;36.30;23.20;;;;;;5057614;28;20025;-71
2023/09/17 05:00:20;;;;;;;3.00;0.70;;;36.20;23.90;;;;;;5044947;28;20031;-71
2023/09/17 05:02:50;;;;;;;1.77;0.68;;;36.20;24.10;;;;;;5051609;28;20485;-70
2023/09/17 05:05:20;;;;;;;0.70;0.52;;;36.20;23.20;;;;;;5054867;28;20036;-70
2023/09/17 05:07:48;;;;;;;1.33;0.60;;;36.10;23.80;;;;;;5058136;28;20039;-71
2023/09/17 05:10:18;;;;;;;1.52;0.70;;;36.10;24.00;;;;;;5049173;28;20037;-70
2023/09/17 05:12:46;;;;;;;1.92;0.60;;;36.10;24.00;;;;;;5052784;28;20032;-70
2023/09/17 05:15:13;;;;;;;0.90;0.50;;;35.90;23.40;;;;;;5054107;28;20378;-70
2023/09/17 05:17:41;;;;;;;0.82;0.68;;;35.80;24.20;;;;;;5055178;28;20389;-70
2023/09/17 05:20:09;;;;;;;1.30;0.70;;;35.80;23.40;;;;;;5055282;28;20056;-71
2023/09/17 05:22:36;;;;;;;1.30;0.70;;;35.70;23.90;;;;;;5058187;28;20129;-70
2023/09/17 05:25:08;;;;;;;0.73;0.43;;;35.60;24.50;;;;;;5049337;28;20139;-71
2023/09/17 05:27:35;;;;;;;1.65;0.60;;;35.70;23.90;;;;;;5053586;28;20037;-69
2023/09/17 05:30:03;;;;;;;1.10;0.45;;;35.60;23.60;;;;;;5054504;28;20032;-70
2023/09/17 05:32:30;;;;;;;0.65;0.50;;;35.40;23.80;;;;;;5048893;28;20468;-70
2023/09/17 05:35:03;;;;;;;1.00;0.45;;;35.40;23.80;;;;;;5054040;28;20060;-70
2023/09/17 05:37:30;;;;;;;0.70;0.50;;;35.20;23.80;;;;;;5052312;28;20025;-71
2023/09/17 05:39:58;;;;;;;1.13;0.50;;;35.20;23.20;;;;;;5048636;28;20139;-72
2023/09/17 05:42:26;;;;;;;0.60;0.40;;;35.10;23.50;;;;;;5048222;28;20490;-70
2023/09/17 05:44:53;;;;;;;2.90;0.85;;;35.00;23.30;;;;;;5051982;28;20029;-70
2023/09/17 05:47:21;;;;;;;2.85;0.50;;;34.80;22.60;;;;;;5053193;28;20382;-71
2023/09/17 05:49:48;;;;;;;0.68;0.45;;;34.60;22.70;;;;;;5050649;28;20033;-71
2023/09/17 05:52:16;;;;;;;0.95;0.57;;;34.40;22.90;;;;;;5046453;28;20186;-70
2023/09/17 05:54:43;;;;;;;2.72;0.40;;;34.30;23.30;;;;;;5048620;28;20352;-71
2023/09/17 05:57:11;;;;;;;0.68;0.47;;;34.30;23.40;;;;;;5049447;28;20098;-71
2023/09/17 05:59:38;;;;;;;0.52;0.50;;;34.20;23.20;;;;;;5051370;28;20028;-71
2023/09/17 06:02:06;;;;;;;1.58;0.40;;;34.10;23.00;;;;;;5046663;28;20017;-71
2023/09/17 06:04:34;;;;;;;0.30;0.30;;;34.00;23.20;;;;;;5052662;28;20028;-72
2023/09/17 06:07:02;;;;;;;2.47;0.55;;;33.90;23.30;;;;;;5054703;28;20377;-69
2023/09/17 06:09:30;;;;;;;0.98;0.47;;;34.00;22.90;;;;;;5061071;28;20044;-71
2023/09/17 06:11:57;;;;;;;0.60;0.30;;;34.00;23.50;;;;;;5053195;28;20486;-72
2023/09/17 06:14:25;;;;;;;0.70;0.47;;;33.80;23.70;;;;;;5050504;28;20024;-70
2023/09/17 06:16:52;;;;;;;0.68;0.32;;;33.90;23.00;;;;;;5060925;28;20037;-71
2023/09/17 06:19:20;;;;;;;0.40;0.35;;;33.70;22.80;;;;;;5057686;28;20036;-71
2023/09/17 06:21:47;;;;;;;1.02;0.45;;;33.70;23.00;;;;;;5062837;28;20025;-71
2023/09/17 06:24:16;;;;;;;0.55;0.38;;;33.50;23.10;;;;;;5052057;28;20080;-71
2023/09/17 06:26:44;;;;;;;0.63;0.50;;;33.50;23.30;;;;;;5055835;28;20104;-71
2023/09/17 06:29:11;;;;;;;1.00;0.50;;;33.30;23.70;;;;;;5060836;28;20043;-70
2023/09/17 06:31:39;;;;;;;2.53;0.40;;;33.30;23.70;;;;;;5054160;28;20116;-70
2023/09/17 06:34:07;;;;;;;1.05;0.30;;;33.20;23.60;;;;;;5052820;28;20411;-70
2023/09/17 06:36:36;;;;;;;0.85;0.40;;;33.10;23.90;;;;;;5055882;28;20190;-72
2023/09/17 06:39:04;;;;;;;2.20;0.40;;;33.00;24.10;;;;;;5058418;28;20039;-72
2023/09/17 06:41:32;;;;;;;1.33;0.50;;;32.90;24.40;;;;;;5058220;28;20029;-71
2023/09/17 06:43:59;;;;;;;1.08;0.40;;;32.80;24.60;;;;;;5039174;28;20029;-71
2023/09/17 06:46:28;;;;;;;0.80;0.60;;;32.80;24.70;;;;;;5059966;28;20049;-69
2023/09/17 06:48:56;;;;;;;0.90;0.40;;;32.80;24.40;;;;;;5057648;28;20077;-70
2023/09/17 06:51:23;;;;;;;1.17;0.40;;;32.60;24.60;;;;;;5054722;28;20036;-71
2023/09/17 06:53:51;;;;;;;0.50;0.40;;;32.60;24.20;;;;;;5049983;28;20385;-69
2023/09/17 06:56:18;;;;;;;1.58;0.55;;;32.50;24.40;;;;;;5058487;28;20028;-70
2023/09/17 06:58:46;;;;;;;1.40;0.60;;;32.40;24.10;;;;;;5052035;28;20124;-70
2023/09/17 07:01:13;;;;;;;2.35;0.45;;;32.30;23.70;;;;;;5050925;28;20086;-70
2023/09/17 07:03:40;;;;;;;0.40;0.30;;;32.10;23.40;;;;;;5051037;28;20024;-70
2023/09/17 07:06:07;;;;;;;0.40;0.30;;;31.90;23.70;;;;;;5051989;28;20056;-70
2023/09/17 07:08:36;;;;;;;0.70;0.30;;;31.80;23.50;;;;;;5031389;28;20063;-71
2023/09/17 07:11:04;;;;;;;0.60;0.45;;;31.70;23.50;;;;;;5040349;28;20037;-70
2023/09/17 07:13:31;;;;;;;1.00;0.47;;;31.50;24.20;;;;;;5047770;28;20036;-71
2023/09/17 07:15:59;;;;;;;1.25;0.38;;;31.30;23.80;;;;;;5037066;28;20032;-71
2023/09/17 07:18:30;;;;;;;0.70;0.50;;;31.10;23.80;;;;;;5039338;28;20441;-69
2023/09/17 07:20:57;;;;;;;1.77;0.70;;;30.90;23.80;;;;;;5050984;28;20068;-69
2023/09/17 07:23:25;;;;;;;2.42;0.57;;;30.70;23.90;;;;;;5041206;28;20092;-70
2023/09/17 07:25:52;;;;;;;3.75;0.90;;;30.60;24.20;;;;;;5050151;28;20029;-70
2023/09/17 07:28:20;;;;;;;0.73;0.40;;;30.40;24.40;;;;;;5043534;28;20466;-69
2023/09/17 07:30:52;;;;;;;2.20;0.50;;;30.30;24.10;;;;;;5048148;28;20524;-70
2023/09/17 07:33:20;;;;;;;1.55;0.60;;;30.00;24.30;;;;;;5049596;28;20144;-70
2023/09/17 07:35:48;;;;;;;4.50;0.70;;;29.80;24.70;;;;;;5053798;28;20171;-70
2023/09/17 07:38:15;;;;;;;3.33;0.98;;;29.70;24.70;;;;;;5051328;28;20139;-70
2023/09/17 07:40:43;;;;;;;1.23;0.80;;;29.50;24.80;;;;;;5047597;28;20075;-71
2023/09/17 07:43:10;;;;;;;1.27;0.80;;;29.40;24.90;;;;;;5051367;28;20474;-70
2023/09/17 07:45:38;;;;;;;5.22;1.08;;;29.20;25.30;;;;;;5056486;28;20547;-70
2023/09/17 07:48:06;;;;;;;2.55;1.00;;;29.10;25.20;;;;;;5054287;28;20017;-70
2023/09/17 07:50:34;;;;;;;2.42;1.10;;;28.90;25.30;;;;;;5053820;28;20040;-69
2023/09/17 07:53:02;;;;;;;1.58;0.95;;;28.80;25.90;;;;;;5043790;28;20045;-70
2023/09/17 07:55:29;;;;;;;3.55;0.80;;;28.60;25.40;;;;;;5047986;28;20029;-70
2023/09/17 07:57:57;;;;;;;3.38;1.50;;;28.50;25.40;;;;;;5059454;28;20048;-71
2023/09/17 08:00:25;;;;;;;1.42;0.77;;;28.40;25.50;;;;;;5063988;28;20040;-71
2023/09/17 08:02:52;;;;;;;1.17;0.60;;;28.30;25.60;;;;;;5061645;28;20372;-71
2023/09/17 08:05:19;;;;;;;2.70;0.80;;;28.30;25.60;;;;;;5056102;28;20521;-70
2023/09/17 08:07:47;;;;;;;1.65;0.82;;;28.10;26.10;;;;;;5060994;28;20033;-70
2023/09/17 08:10:14;;;;;;;1.33;0.77;;;27.80;27.20;;;;;;5041844;28;20844;-70
2023/09/17 08:12:42;;;;;;;2.55;1.20;;;27.60;27.40;;;;;;5055355;28;20028;-71
2023/09/17 08:15:09;;;;;;;2.00;1.05;;;27.40;28.00;;;;;;5060665;28;20024;-70
2023/09/17 08:17:36;;;;;;;1.27;0.90;;;27.10;28.00;;;;;;5054984;28;20032;-71
2023/09/17 08:20:05;;;;;;;1.90;1.00;;;27.00;27.30;;;;;;5059616;28;20381;-71
2023/09/17 08:22:33;;;;;;;1.33;0.90;;;26.90;27.60;;;;;;5053489;28;20053;-68
2023/09/17 08:25:00;;;;;;;2.35;1.05;;;26.70;28.00;;;;;;5051652;28;20475;-69
2023/09/17 08:27:28;;;;;;;2.20;1.30;;;26.60;27.90;;;;;;4985154;28;21038;-71
2023/09/17 08:29:58;;;;;;;1.58;0.80;;;26.50;28.80;;;;;;4959053;28;20400;-71
2023/09/17 08:32:25;;;;;;;2.60;1.05;;;26.30;29.10;;;;;;4998487;28;20030;-70
2023/09/17 08:34:53;;;;;;;4.03;1.27;;;26.20;29.50;;;;;;5035796;28;20024;-69
2023/09/17 08:37:22;;;;;;;2.85;1.30;;;26.10;29.60;;;;;;5025750;28;20505;-72
2023/09/17 08:39:50;;;;;;;5.03;1.80;;;25.90;30.00;;;;;;5034408;28;20025;-69
2023/09/17 08:42:18;;;;;;;2.83;1.85;;;25.70;30.10;;;;;;5040786;28;20016;-69
2023/09/17 08:44:47;;;;;;;5.57;2.10;;;25.60;29.90;;;;;;5035807;28;20028;-72
2023/09/17 08:47:15;;;;;;;5.60;4.20;;;25.50;30.30;;;;;;5036773;28;20112;-71
2023/09/17 08:49:43;;;;;;;5.13;2.90;;;25.40;30.00;;;;;;5047755;28;20034;-70
2023/09/17 08:52:13;;;;;;;4.88;2.03;;;25.30;30.40;;;;;;5032554;28;20192;-72
2023/09/17 08:54:45;;;;;;;3.35;1.77;;;25.20;29.20;;;;;;5038192;28;20031;-72
2023/09/17 08:57:18;;;;;;;2.42;1.38;;;25.30;28.90;;;;;;5049341;28;20287;-71
2023/09/17 08:59:50;;;;;;;2.90;1.35;;;25.30;28.80;;;;;;5047497;28;20021;-69
2023/09/17 09:02:29;;;;;;;3.72;1.67;;;25.40;28.80;;;;;;5033827;28;20632;-69
2023/09/17 09:04:58;;;;;;;3.20;1.52;;;25.30;29.20;;;;;;5034103;28;20036;-69
2023/09/17 09:07:28;;;;;;;2.83;1.95;;;25.20;29.50;;;;;;5050320;28;20043;-69
2023/09/17 09:09:56;;;;;;;7.05;2.00;;;25.10;30.90;;;;;;5048751;28;20074;-69
2023/09/17 09:12:26;;;;;;;4.90;2.85;;;24.90;30.70;;;;;;5054248;28;20078;-70
2023/09/17 09:14:55;;;;;;;3.90;2.38;;;24.80;31.80;;;;;;5064113;28;20044;-69
2023/09/17 09:17:22;;;;;;;3.67;1.92;;;24.60;31.50;;;;;;5064425;28;20500;-69
2023/09/17 09:19:50;;;;;;;3.75;2.05;;;24.40;30.80;;;;;;5050048;28;20126;-70
2023/09/17 09:22:18;;;;;;;4.55;2.20;;;24.40;31.10;;;;;;5050980;28;20048;-70
2023/09/17 09:24:49;;;;;;;4.25;1.90;;;24.30;32.70;;;;;;5055318;28;20025;-70
2023/09/17 09:27:17;;;;;;;6.50;1.70;;;24.20;31.40;;;;;;5050854;28;20033;-69
2023/09/17 09:29:44;;;;;;;4.10;1.55;;;24.20;30.80;;;;;;5060005;28;20207;-70
2023/09/17 09:32:13;;;;;;;1.67;1.10;;;24.20;30.70;;;;;;5057768;28;20020;-70
2023/09/17 09:34:44;;;;;;;2.33;1.05;;;24.10;30.40;;;;;;5046091;28;20049;-71
2023/09/17 09:37:12;;;;;;;2.90;1.30;;;24.10;30.20;;;;;;5052452;28;20466;-71
2023/09/17 09:39:42;;;;;;;1.98;1.35;;;24.00;30.40;;;;;;5056104;28;20026;-68
2023/09/17 09:42:11;;;;;;;2.28;0.88;;;24.00;32.70;;;;;;5044814;28;20025;-69
2023/09/17 09:44:39;;;;;;;2.47;1.13;;;23.90;31.60;;;;;;5036633;28;20044;-70
2023/09/17 09:47:06;;;;;;;2.13;1.02;;;23.80;32.00;;;;;;5050643;28;20468;-69
2023/09/17 09:49:44;;;;;;;3.22;1.30;;;23.70;32.20;;;;;;5056278;28;20198;-69
2023/09/17 09:52:15;;;;;;;3.55;1.30;;;23.60;32.20;;;;;;5056179;28;20441;-69
2023/09/17 09:54:46;;;;;;;2.10;1.00;;;23.50;32.10;;;;;;5056954;28;20032;-69
2023/09/17 09:57:19;;;;;;;2.45;1.20;;;23.40;32.50;;;;;;5056610;28;20032;-70
2023/09/17 09:59:48;;;;;;;3.45;1.00;;;23.30;33.70;;;;;;5051797;28;20012;-70
2023/09/17 10:02:20;;;;;;;3.83;1.20;;;23.10;33.90;;;;;;5048542;28;20028;-69
2023/09/17 10:04:48;;;;;;;3.50;1.10;;;23.00;34.60;;;;;;5052867;28;20488;-69
2023/09/17 10:07:17;;;;;;;2.58;1.10;;;22.90;33.90;;;;;;5047586;28;20428;-69
2023/09/17 10:09:46;;;;;;;2.55;0.93;;;22.80;33.50;;;;;;5055407;28;20041;-69
2023/09/17 10:12:13;;;;;;;3.30;1.00;;;22.80;32.80;;;;;;5058813;28;20024;-69
2023/09/17 10:14:42;;;;;;;2.05;1.00;;;22.90;32.90;;;;;;5054312;28;20063;-69
2023/09/17 10:17:12;;;;;;;2.08;0.80;;;22.80;33.90;;;;;;5058891;28;20032;-70
2023/09/17 10:19:41;;;;;;;3.22;1.13;;;22.70;33.30;;;;;;5054508;28;20039;-70
2023/09/17 10:22:13;;;;;;;2.65;0.90;;;22.70;34.40;;;;;;5056740;28;20085;-70
2023/09/17 10:24:41;;;;;;;3.47;1.50;;;22.60;35.60;;;;;;5048409;28;20039;-70
2023/09/17 10:27:13;;;;;;;1.95;1.10;;;22.50;36.00;;;;;;5053009;28;20039;-70
2023/09/17 10:29:43;;;;;;;2.60;1.10;;;22.30;35.50;;;;;;5048117;28;20529;-70
2023/09/17 10:32:11;;;;;;;2.63;1.52;;;22.10;35.70;;;;;;5046698;28;20514;-69
2023/09/17 10:34:39;;;;;;;4.95;0.90;;;22.10;35.90;;;;;;5044979;28;20097;-69
2023/09/17 10:37:07;;;;;;;5.95;1.15;;;22.00;34.70;;;;;;5043389;28;20465;-68
2023/09/17 10:39:35;;;;;;;2.85;1.10;;;22.00;34.90;;;;;;5042495;28;20040;-69
2023/09/17 10:42:06;;;;;;;4.57;1.02;;;21.90;36.00;;;;;;5047523;28;20017;-68
2023/09/17 10:44:36;;;;;;;5.03;1.13;;;21.80;36.20;;;;;;5036166;28;20044;-70
2023/09/17 10:47:08;;;;;;;3.08;1.55;;;21.70;36.70;;;;;;5044526;28;20359;-70
2023/09/17 10:49:38;;;;;;;3.03;0.90;;;21.60;35.80;;;;;;5051797;28;20123;-71
2023/09/17 10:52:09;;;;;;;2.30;1.20;;;21.50;36.40;;;;;;5065729;28;20025;-70
2023/09/17 10:54:36;;;;;;;1.98;1.30;;;21.50;36.80;;;;;;5072908;28;20477;-70
2023/09/17 10:57:56;;;;;;;2.88;1.10;;;21.40;36.70;;;;;;5009211;28;20350;-72
2023/09/17 11:00:35;;;;;;;2.20;1.02;;;21.30;36.60;;;;;;4977961;28;20366;-71
2023/09/17 11:03:10;;;;;;;2.13;1.00;;;21.30;37.00;;;;;;4982308;28;20980;-71
2023/09/17 11:05:43;;;;;;;1.88;0.70;;;21.30;36.50;;;;;;4984290;28;20505;-70
2023/09/17 11:08:11;;;;;;;1.15;0.70;;;21.20;36.20;;;;;;5002685;28;20195;-70
2023/09/17 11:10:41;;;;;;;2.85;0.90;;;21.30;35.70;;;;;;5007677;28;20040;-70
2023/09/17 11:13:23;;;;;;;1.55;0.68;;;21.30;35.40;;;;;;4989056;28;20131;-72
2023/09/17 11:15:56;;;;;;;1.98;0.80;;;21.30;35.50;;;;;;4997897;28;20351;-70
2023/09/17 11:18:23;;;;;;;2.45;0.70;;;21.30;35.70;;;;;;5058473;28;20021;-70
2023/09/17 11:21:06;;;;;;;1.33;0.75;;;21.30;35.40;;;;;;5057299;28;20032;-70
2023/09/17 11:23:46;;;;;;;1.00;0.60;;;21.30;35.00;;;;;;5057468;28;20474;-69
2023/09/17 11:26:18;;;;;;;2.50;0.55;;;21.30;35.00;;;;;;5059907;28;20101;-69
2023/09/17 11:28:51;;;;;;;3.40;0.90;;;21.30;34.80;;;;;;5054723;28;20060;-70
2023/09/17 11:31:18;;;;;;;2.97;1.15;;;21.20;35.10;;;;;;5051659;28;20035;-70
2023/09/17 11:33:48;;;;;;;2.20;0.80;;;21.20;35.40;;;;;;5054500;28;20478;-70
2023/09/17 11:36:15;;;;;;;2.25;0.60;;;21.10;36.00;;;;;;5060860;28;20032;-69
2023/09/17 11:38:47;;;;;;;1.60;0.60;;;21.00;36.90;;;;;;5057961;28;20029;-69
2023/09/17 11:41:16;;;;;;;2.33;0.70;;;20.90;37.00;;;;;;5059798;28;20408;-70
2023/09/17 11:43:49;;;;;;;3.75;1.13;;;20.70;38.50;;;;;;5057205;28;20024;-69
2023/09/17 11:46:17;;;;;;;1.48;0.80;;;20.60;39.10;;;;;;5040898;28;20040;-70
2023/09/17 11:48:45;;;;;;;2.10;0.75;;;20.50;39.10;;;;;;5058372;28;20650;-69
2023/09/17 11:51:31;;;;;;;5.45;1.20;;;20.40;39.30;;;;;;5058967;28;20033;-69
2023/09/17 11:54:05;;;;;;;3.60;0.90;;;20.20;38.40;;;;;;5057274;28;20504;-70
2023/09/17 11:56:36;;;;;;;1.17;0.68;;;20.20;38.00;;;;;;5057988;28;20024;-69
2023/09/17 11:59:06;;;;;;;3.40;0.75;;;20.20;38.30;;;;;;5053274;28;20535;-69
2023/09/17 12:01:42;;;;;;;1.92;0.63;;;20.10;38.90;;;;;;5056546;28;20032;-69
2023/09/17 12:04:11;;;;;;;3.00;0.88;;;20.10;38.20;;;;;;5053339;28;20029;-69
2023/09/17 12:06:44;;;;;;;1.73;0.80;;;20.10;38.50;;;;;;5057225;28;20055;-69
2023/09/17 12:09:23;;;;;;;4.05;0.77;;;20.10;38.80;;;;;;5051224;28;20552;-69
2023/09/17 12:11:51;;;;;;;1.10;0.90;;;20.10;38.70;;;;;;5057097;28;20382;-69
2023/09/17 12:14:19;;;;;;;3.97;1.10;;;20.10;38.10;;;;;;5054664;28;20025;-69
2023/09/17 12:16:51;;;;;;;2.85;1.00;;;20.10;38.20;;;;;;5050146;28;20029;-69
2023/09/17 12:19:19;;;;;;;7.65;1.10;;;20.10;38.20;;;;;;5054693;28;20067;-70
2023/09/17 12:21:53;;;;;;;3.28;0.60;;;20.10;38.20;;;;;;5052139;28;20029;-69
2023/09/17 12:24:40;;;;;;;1.58;0.80;;;20.10;38.00;;;;;;5052514;28;20037;-69
2023/09/17 12:29:41;;;;;;;1.42;0.70;;;20.10;38.10;;;;;;5029483;28;20045;-70
2023/09/17 12:32:12;;;;;;;3.95;0.70;;;20.10;38.10;;;;;;5041505;28;20099;-71
2023/09/17 12:34:41;;;;;;;2.65;1.05;;;20.10;38.00;;;;;;5047450;28;20024;-69
2023/09/17 12:37:11;;;;;;;2.45;0.80;;;20.00;38.10;;;;;;5049990;28;20040;-69
2023/09/17 12:39:43;;;;;;;3.83;1.10;;;20.00;38.30;;;;;;5046907;28;20028;-71
2023/09/17 12:42:10;;;;;;;2.97;1.20;;;20.00;38.50;;;;;;5051921;28;20032;-69
2023/09/17 12:44:37;;;;;;;5.70;1.70;;;19.80;40.20;;;;;;5054872;28;20477;-69
2023/09/17 12:47:05;;;;;;;2.60;1.60;;;20.10;41.60;;;;;;5050529;28;20448;-71
2023/09/17 12:49:33;;;;;;;3.47;1.90;;;19.80;41.80;;;;;;5045909;28;20050;-68
2023/09/17 12:52:04;;;;;;;11.48;1.90;;;19.50;42.60;;;;;;5061333;28;20722;-70
2023/09/17 12:54:31;;;;;;;3.63;1.50;;;19.00;43.80;;;;;;5052351;28;20429;-69
2023/09/17 12:56:59;;;;;;;3.88;2.00;;;18.70;44.40;;;;;;5051589;28;20021;-68
2023/09/17 12:59:39;;;;;;;4.68;1.40;;;18.70;44.90;;;;;;5051572;28;20394;-70
2023/09/17 13:02:07;;;;;;;3.63;1.80;;;18.50;45.00;;;;;;5047244;28;20547;-68